Time;durP1;ratioP1;P1;durP2;ratioP2;P2;SDS_P1;SDS_P2;PMS_P1;PMS_P2;Temp;Humidity;BMP_temperature;BMP_pressure;BME280_temperature;BME280_humidity;BME280_pressure;Samples;Min_cycle;Max_cycle;Signal;HPM_P1;HPM_P2
2022/12/07 00:00:52;;;;;;;23.05;17.38;;;;;;;;;;5093850;28;20199;-68
2022/12/07 00:03:19;;;;;;;20.63;16.50;;;;;;;;;;5094056;28;20227;-67
2022/12/07 00:05:46;;;;;;;22.35;14.63;;;;;;;;;;5093590;28;20197;-67
2022/12/07 00:08:14;;;;;;;19.10;15.38;;;;;;;;;;5093606;28;20211;-68
2022/12/07 00:10:42;;;;;;;19.92;14.27;;;;;;;;;;5093711;28;20191;-67
2022/12/07 00:13:09;;;;;;;18.15;15.52;;;;;;;;;;5093977;28;20194;-68
2022/12/07 00:15:36;;;;;;;14.18;12.13;;;;;;;;;;5093767;28;20203;-67
2022/12/07 00:18:03;;;;;;;18.08;15.30;;;;;;;;;;5093646;28;20261;-67
2022/12/07 00:20:31;;;;;;;15.88;13.10;;;;;;;;;;5093716;28;20199;-67
2022/12/07 00:22:58;;;;;;;20.58;13.13;;;;;;;;;;5093757;28;20725;-67
2022/12/07 00:25:27;;;;;;;18.95;14.30;;;;;;;;;;5094097;28;20600;-68
2022/12/07 00:27:56;;;;;;;17.02;14.02;;;;;;;;;;5093612;28;20201;-68
2022/12/07 00:30:23;;;;;;;15.35;13.32;;;;;;;;;;5093591;28;20244;-68
2022/12/07 00:32:50;;;;;;;16.58;13.55;;;;;;;;;;5093734;28;20198;-68
2022/12/07 00:35:18;;;;;;;13.52;11.55;;;;;;;;;;5093423;28;20201;-68
2022/12/07 00:37:45;;;;;;;14.88;12.55;;;;;;;;;;5093181;28;20195;-67
2022/12/07 00:40:12;;;;;;;17.88;12.45;;;;;;;;;;5093045;28;20201;-67
2022/12/07 00:42:41;;;;;;;15.32;11.88;;;;;;;;;;5093677;28;20315;-67
2022/12/07 00:45:09;;;;;;;17.10;13.95;;;;;;;;;;5093377;28;20624;-67
2022/12/07 00:47:36;;;;;;;14.90;13.23;;;;;;;;;;5093390;28;20587;-67
2022/12/07 00:50:03;;;;;;;15.32;11.60;;;;;;;;;;5093518;28;20234;-67
2022/12/07 00:52:30;;;;;;;14.90;12.50;;;;;;;;;;5092922;28;20706;-68
2022/12/07 00:54:58;;;;;;;16.40;12.80;;;;;;;;;;5093313;28;20301;-67
2022/12/07 00:57:25;;;;;;;23.50;13.10;;;;;;;;;;5093348;28;20284;-67
2022/12/07 00:59:55;;;;;;;15.43;11.23;;;;;;;;;;5093569;28;20231;-66
2022/12/07 01:02:22;;;;;;;15.73;12.43;;;;;;;;;;5093427;28;20230;-67
2022/12/07 01:04:49;;;;;;;13.93;11.48;;;;;;;;;;5092934;28;20207;-66
2022/12/07 01:07:16;;;;;;;16.92;12.50;;;;;;;;;;5093033;28;20193;-67
2022/12/07 01:09:44;;;;;;;16.35;11.27;;;;;;;;;;5092745;28;20202;-67
2022/12/07 01:12:11;;;;;;;13.43;10.85;;;;;;;;;;5092747;28;20206;-66
2022/12/07 01:14:38;;;;;;;18.25;11.95;;;;;;;;;;5092909;28;20287;-67
2022/12/07 01:17:07;;;;;;;11.68;8.90;;;;;;;;;;5092965;28;20288;-66
2022/12/07 01:19:34;;;;;;;12.77;11.27;;;;;;;;;;5093039;28;20223;-66
2022/12/07 01:22:01;;;;;;;14.50;11.98;;;;;;;;;;5092779;28;20288;-67
2022/12/07 01:24:28;;;;;;;15.77;10.85;;;;;;;;;;5092768;28;20655;-66
2022/12/07 01:26:55;;;;;;;16.17;11.77;;;;;;;;;;5093043;28;20236;-67
2022/12/07 01:29:23;;;;;;;13.65;11.00;;;;;;;;;;5092988;28;20295;-67
2022/12/07 01:31:50;;;;;;;15.07;11.70;;;;;;;;;;5093068;28;20552;-67
2022/12/07 01:34:19;;;;;;;15.30;12.00;;;;;;;;;;5093013;28;20287;-67
2022/12/07 01:36:46;;;;;;;13.27;10.95;;;;;;;;;;5092645;28;20198;-66
2022/12/07 01:39:13;;;;;;;17.58;12.77;;;;;;;;;;5092935;28;20242;-67
2022/12/07 01:41:43;;;;;;;14.50;12.50;;;;;;;;;;5092866;28;20239;-66
2022/12/07 01:44:18;;;;;;;15.10;12.63;;;;;;;;;;5094895;28;20182;-67
2022/12/07 01:46:46;;;;;;;18.02;11.45;;;;;;;;;;5096256;28;20237;-66
2022/12/07 01:49:15;;;;;;;16.52;12.20;;;;;;;;;;5096689;28;20205;-66
2022/12/07 01:51:45;;;;;;;15.80;11.65;;;;;;;;;;5096365;28;20291;-67
2022/12/07 01:54:13;;;;;;;15.70;12.52;;;;;;;;;;5096468;28;20202;-67
2022/12/07 01:56:41;;;;;;;20.60;13.25;;;;;;;;;;5096844;28;20306;-67
2022/12/07 01:59:10;;;;;;;14.43;11.82;;;;;;;;;;5096446;28;20302;-67
2022/12/07 02:01:38;;;;;;;22.90;12.57;;;;;;;;;;5095918;28;20199;-67
2022/12/07 02:04:06;;;;;;;17.48;12.52;;;;;;;;;;5096318;28;20219;-67
2022/12/07 02:06:33;;;;;;;24.02;12.95;;;;;;;;;;5095802;28;20205;-67
2022/12/07 02:09:01;;;;;;;17.83;11.98;;;;;;;;;;5095916;28;20284;-67
2022/12/07 02:11:29;;;;;;;17.08;11.98;;;;;;;;;;5096494;28;20209;-66
2022/12/07 02:13:56;;;;;;;17.48;13.73;;;;;;;;;;5096097;28;20199;-67
2022/12/07 02:16:27;;;;;;;18.33;12.98;;;;;;;;;;5096475;28;20196;-66
2022/12/07 02:19:01;;;;;;;15.68;11.57;;;;;;;;;;5096119;28;20666;-66
2022/12/07 02:21:32;;;;;;;15.10;12.73;;;;;;;;;;5096079;28;20191;-66
2022/12/07 02:24:17;;;;;;;19.98;12.32;;;;;;;;;;5095738;28;20642;-66
2022/12/07 02:27:01;;;;;;;19.38;12.93;;;;;;;;;;5095605;28;20204;-67
2022/12/07 02:29:32;;;;;;;15.43;11.85;;;;;;;;;;5096068;28;20192;-67
2022/12/07 02:32:05;;;;;;;19.17;13.40;;;;;;;;;;5095337;28;20196;-67
2022/12/07 02:34:38;;;;;;;13.18;11.30;;;;;;;;;;5095716;28;20279;-67
2022/12/07 02:37:09;;;;;;;19.95;13.55;;;;;;;;;;5095255;28;20633;-66
2022/12/07 02:39:39;;;;;;;17.60;13.63;;;;;;;;;;5095684;28;20564;-66
2022/12/07 02:42:11;;;;;;;15.65;12.90;;;;;;;;;;5095489;28;20224;-68
2022/12/07 02:44:41;;;;;;;18.58;12.82;;;;;;;;;;5095840;28;20183;-67
2022/12/07 02:47:11;;;;;;;16.30;11.98;;;;;;;;;;5094984;28;20207;-67
2022/12/07 02:49:39;;;;;;;14.57;11.63;;;;;;;;;;5095321;28;20186;-66
2022/12/07 02:52:06;;;;;;;18.25;14.27;;;;;;;;;;5094828;28;20203;-67
2022/12/07 02:54:34;;;;;;;25.33;13.27;;;;;;;;;;5094822;28;20200;-67
2022/12/07 02:57:04;;;;;;;19.70;13.57;;;;;;;;;;5094500;28;20240;-66
2022/12/07 02:59:37;;;;;;;19.70;12.45;;;;;;;;;;5095447;28;20217;-66
2022/12/07 03:02:10;;;;;;;18.80;12.85;;;;;;;;;;5095084;28;20209;-67
2022/12/07 03:04:43;;;;;;;17.52;10.85;;;;;;;;;;5095028;28;20279;-66
2022/12/07 03:07:13;;;;;;;17.95;13.30;;;;;;;;;;5094687;28;20645;-66
2022/12/07 03:09:45;;;;;;;20.58;12.95;;;;;;;;;;5095466;28;20550;-66
2022/12/07 03:12:15;;;;;;;18.88;11.52;;;;;;;;;;5094642;28;20200;-66
2022/12/07 03:14:43;;;;;;;23.55;13.15;;;;;;;;;;5094556;28;20680;-67
2022/12/07 03:17:14;;;;;;;16.67;12.98;;;;;;;;;;5094480;28;20201;-67
2022/12/07 03:19:43;;;;;;;17.63;12.15;;;;;;;;;;5095000;28;20303;-67
2022/12/07 03:22:11;;;;;;;21.13;12.40;;;;;;;;;;5094697;28;20531;-66
2022/12/07 03:24:42;;;;;;;19.52;12.32;;;;;;;;;;5094216;28;20653;-67
2022/12/07 03:27:11;;;;;;;22.35;13.18;;;;;;;;;;5094429;28;20649;-66
2022/12/07 03:29:39;;;;;;;20.92;12.23;;;;;;;;;;5094682;28;20199;-67
2022/12/07 03:32:08;;;;;;;19.63;12.27;;;;;;;;;;5094482;28;20234;-67
2022/12/07 03:34:41;;;;;;;18.77;12.57;;;;;;;;;;5094350;28;20219;-66
2022/12/07 03:37:10;;;;;;;16.92;12.13;;;;;;;;;;5094773;28;20615;-67
2022/12/07 03:39:39;;;;;;;19.92;12.43;;;;;;;;;;5094210;28;20586;-67
2022/12/07 03:42:07;;;;;;;17.40;11.27;;;;;;;;;;5094081;28;20240;-66
2022/12/07 03:44:36;;;;;;;18.08;13.05;;;;;;;;;;5093975;28;20293;-66
2022/12/07 03:47:05;;;;;;;20.58;14.25;;;;;;;;;;5094341;28;20196;-67
2022/12/07 03:49:34;;;;;;;15.48;11.90;;;;;;;;;;5094251;28;20206;-66
2022/12/07 03:52:05;;;;;;;22.45;13.35;;;;;;;;;;5094298;28;20566;-66
2022/12/07 03:54:35;;;;;;;19.52;13.43;;;;;;;;;;5094253;28;20515;-66
2022/12/07 03:57:03;;;;;;;24.38;14.80;;;;;;;;;;5093749;28;20771;-66
2022/12/07 03:59:31;;;;;;;15.40;11.65;;;;;;;;;;5093627;28;20217;-66
2022/12/07 04:01:59;;;;;;;14.77;12.13;;;;;;;;;;5094295;28;20194;-68
2022/12/07 04:04:26;;;;;;;22.23;12.15;;;;;;;;;;5093902;28;20204;-67
2022/12/07 04:06:53;;;;;;;20.52;13.15;;;;;;;;;;5093296;28;20207;-67
2022/12/07 04:09:22;;;;;;;14.50;10.85;;;;;;;;;;5093903;28;20199;-66
2022/12/07 04:11:49;;;;;;;16.10;10.85;;;;;;;;;;5094220;28;20194;-66
2022/12/07 04:14:19;;;;;;;18.70;12.43;;;;;;;;;;5093461;28;20194;-66
2022/12/07 04:16:46;;;;;;;14.57;9.77;;;;;;;;;;5094047;28;20185;-67
2022/12/07 04:19:14;;;;;;;20.15;11.50;;;;;;;;;;5089144;28;20693;-67
2022/12/07 04:21:41;;;;;;;18.67;10.80;;;;;;;;;;5073402;28;20193;-67
2022/12/07 04:24:08;;;;;;;16.65;10.63;;;;;;;;;;5073133;28;20196;-66
2022/12/07 04:26:37;;;;;;;14.77;8.70;;;;;;;;;;5073221;28;20203;-67
2022/12/07 04:29:04;;;;;;;18.45;9.15;;;;;;;;;;5073459;28;20201;-67
2022/12/07 04:31:31;;;;;;;12.45;7.63;;;;;;;;;;5073521;28;20195;-68
2022/12/07 04:33:59;;;;;;;22.50;9.93;;;;;;;;;;5073382;28;20215;-66
2022/12/07 04:36:26;;;;;;;12.50;8.50;;;;;;;;;;5073097;28;20203;-66
2022/12/07 04:38:54;;;;;;;13.48;8.50;;;;;;;;;;5073350;28;20226;-66
2022/12/07 04:41:26;;;;;;;15.30;9.60;;;;;;;;;;5072979;28;20562;-67
2022/12/07 04:43:55;;;;;;;12.90;9.02;;;;;;;;;;5073066;28;20199;-67
2022/12/07 04:46:23;;;;;;;13.40;7.65;;;;;;;;;;5072996;28;20205;-67
2022/12/07 04:48:50;;;;;;;11.55;9.10;;;;;;;;;;5073038;28;20293;-66
2022/12/07 04:51:20;;;;;;;12.85;8.90;;;;;;;;;;5073171;28;20226;-66
2022/12/07 04:53:48;;;;;;;8.68;7.72;;;;;;;;;;5073473;28;20232;-66
2022/12/07 04:56:15;;;;;;;11.80;6.90;;;;;;;;;;5073245;28;20206;-68
2022/12/07 04:58:42;;;;;;;12.70;8.38;;;;;;;;;;5072353;28;20303;-66
2022/12/07 05:01:11;;;;;;;12.02;7.10;;;;;;;;;;5072587;28;20225;-66
2022/12/07 05:03:39;;;;;;;15.60;8.63;;;;;;;;;;5072598;28;20201;-66
2022/12/07 05:06:06;;;;;;;11.60;7.57;;;;;;;;;;5072624;28;20191;-66
2022/12/07 05:08:33;;;;;;;19.10;7.65;;;;;;;;;;5072421;28;20205;-66
2022/12/07 05:11:01;;;;;;;9.68;6.95;;;;;;;;;;5072594;28;20631;-66
2022/12/07 05:13:28;;;;;;;11.30;7.00;;;;;;;;;;5072432;28;20281;-65
2022/12/07 05:15:55;;;;;;;11.65;6.85;;;;;;;;;;5072604;28;20219;-65
2022/12/07 05:18:24;;;;;;;12.32;6.03;;;;;;;;;;5073022;28;20198;-66
2022/12/07 05:20:51;;;;;;;8.68;6.35;;;;;;;;;;5076269;28;20219;-65
2022/12/07 05:23:18;;;;;;;18.20;6.55;;;;;;;;;;5076727;28;20197;-66
2022/12/07 05:25:46;;;;;;;9.45;6.65;;;;;;;;;;5076365;28;20205;-66
2022/12/07 05:28:13;;;;;;;17.00;6.63;;;;;;;;;;5094221;28;20204;-66
2022/12/07 05:30:40;;;;;;;13.30;7.70;;;;;;;;;;5096750;28;20610;-66
2022/12/07 05:33:08;;;;;;;8.40;5.90;;;;;;;;;;5096782;28;20196;-66
2022/12/07 05:35:37;;;;;;;8.20;6.10;;;;;;;;;;5096212;28;20650;-65
2022/12/07 05:38:04;;;;;;;12.98;6.35;;;;;;;;;;5096621;28;20204;-66
2022/12/07 05:40:32;;;;;;;13.32;6.57;;;;;;;;;;5096460;28;20232;-66
2022/12/07 05:42:59;;;;;;;15.38;6.65;;;;;;;;;;5096650;28;20323;-66
2022/12/07 05:45:26;;;;;;;12.40;5.40;;;;;;;;;;5096713;28;20292;-66
2022/12/07 05:47:53;;;;;;;11.85;5.90;;;;;;;;;;5096235;28;20279;-66
2022/12/07 05:50:29;;;;;;;13.40;6.45;;;;;;;;;;5096322;28;20631;-66
2022/12/07 05:52:58;;;;;;;8.48;4.78;;;;;;;;;;5096894;28;20584;-66
2022/12/07 05:55:25;;;;;;;9.85;6.38;;;;;;;;;;5096171;28;20223;-66
2022/12/07 06:00:33;;;;;;;6.90;5.47;;;;;;;;;;5075122;28;20235;-66
2022/12/07 06:03:00;;;;;;;13.05;5.22;;;;;;;;;;5075675;28;20658;-66
2022/12/07 06:05:27;;;;;;;13.38;5.40;;;;;;;;;;5075612;28;20655;-66
2022/12/07 06:07:55;;;;;;;9.05;5.05;;;;;;;;;;5075979;28;20223;-66
2022/12/07 06:10:23;;;;;;;8.98;5.30;;;;;;;;;;5076267;28;20209;-67
2022/12/07 06:12:49;;;;;;;12.30;5.40;;;;;;;;;;5076129;28;20676;-67
2022/12/07 06:15:17;;;;;;;5.18;3.45;;;;;;;;;;5075810;28;20200;-66
2022/12/07 06:17:44;;;;;;;7.43;4.65;;;;;;;;;;5075732;28;20207;-66
2022/12/07 06:20:11;;;;;;;11.35;4.55;;;;;;;;;;5075406;28;20735;-66
2022/12/07 06:22:38;;;;;;;8.68;4.85;;;;;;;;;;5075699;28;20192;-67
2022/12/07 06:25:07;;;;;;;12.88;5.05;;;;;;;;;;5075469;28;20191;-66
2022/12/07 06:27:35;;;;;;;8.90;4.43;;;;;;;;;;5075672;28;20205;-66
2022/12/07 06:30:06;;;;;;;15.38;4.38;;;;;;;;;;5074973;28;20717;-66
2022/12/07 06:32:33;;;;;;;8.25;5.25;;;;;;;;;;5075600;28;20182;-67
2022/12/07 06:35:01;;;;;;;9.32;4.28;;;;;;;;;;5075085;28;20207;-66
2022/12/07 06:37:28;;;;;;;9.38;6.07;;;;;;;;;;5075541;28;20210;-66
2022/12/07 06:39:55;;;;;;;5.80;4.13;;;;;;;;;;5074938;28;20225;-67
2022/12/07 06:42:23;;;;;;;8.82;4.75;;;;;;;;;;5075789;28;20229;-67
2022/12/07 06:44:51;;;;;;;10.13;4.35;;;;;;;;;;5075251;28;20550;-67
2022/12/07 06:47:18;;;;;;;4.90;4.35;;;;;;;;;;5074785;28;20231;-67
2022/12/07 06:49:46;;;;;;;8.45;3.95;;;;;;;;;;5075169;28;20297;-66
2022/12/07 06:52:13;;;;;;;9.63;4.18;;;;;;;;;;5075025;28;20193;-67
2022/12/07 06:54:40;;;;;;;13.48;4.82;;;;;;;;;;5074737;28;20597;-67
2022/12/07 06:57:07;;;;;;;9.63;4.30;;;;;;;;;;5074987;28;20203;-67
2022/12/07 06:59:34;;;;;;;7.25;4.70;;;;;;;;;;5074574;28;20305;-67
2022/12/07 07:02:03;;;;;;;9.30;3.40;;;;;;;;;;5075227;28;20561;-67
2022/12/07 07:04:30;;;;;;;6.68;3.78;;;;;;;;;;5074900;28;20212;-66
2022/12/07 07:06:57;;;;;;;14.18;4.07;;;;;;;;;;5074518;28;20657;-66
2022/12/07 07:09:25;;;;;;;11.75;4.75;;;;;;;;;;5074891;28;20654;-66
2022/12/07 07:11:52;;;;;;;10.90;4.35;;;;;;;;;;5074406;28;20234;-66
2022/12/07 07:14:21;;;;;;;9.75;4.75;;;;;;;;;;5074382;28;20199;-66
2022/12/07 07:16:48;;;;;;;11.30;5.93;;;;;;;;;;5074560;28;20208;-66
2022/12/07 07:19:16;;;;;;;11.60;5.43;;;;;;;;;;5074551;28;20215;-66
2022/12/07 07:21:43;;;;;;;12.60;6.03;;;;;;;;;;5074669;28;20573;-67
2022/12/07 07:24:11;;;;;;;9.50;5.10;;;;;;;;;;5074522;28;20227;-66
2022/12/07 07:26:38;;;;;;;8.63;5.93;;;;;;;;;;5074352;28;20288;-67
2022/12/07 07:29:05;;;;;;;10.10;6.00;;;;;;;;;;5074118;28;20198;-66
2022/12/07 07:31:35;;;;;;;17.42;5.70;;;;;;;;;;5074424;28;20554;-66
2022/12/07 07:34:02;;;;;;;11.45;6.78;;;;;;;;;;5073969;28;20193;-66
2022/12/07 07:36:30;;;;;;;15.90;6.13;;;;;;;;;;5074160;28;20558;-66
2022/12/07 07:38:58;;;;;;;9.38;6.50;;;;;;;;;;5073874;28;20196;-67
2022/12/07 07:41:25;;;;;;;15.15;6.88;;;;;;;;;;5072796;28;20702;-67
2022/12/07 07:43:52;;;;;;;13.93;6.43;;;;;;;;;;5074618;28;20544;-67
2022/12/07 07:46:19;;;;;;;10.85;5.60;;;;;;;;;;5074063;28;20726;-67
2022/12/07 07:48:46;;;;;;;8.77;7.07;;;;;;;;;;5074219;28;20201;-67
2022/12/07 07:51:14;;;;;;;14.27;4.80;;;;;;;;;;5073930;28;20237;-67
2022/12/07 07:53:42;;;;;;;6.90;4.32;;;;;;;;;;5074419;28;20597;-67
2022/12/07 07:56:09;;;;;;;8.85;5.80;;;;;;;;;;5074558;28;20207;-66
2022/12/07 07:58:39;;;;;;;15.55;5.68;;;;;;;;;;5074306;28;20203;-66
2022/12/07 08:01:06;;;;;;;16.75;5.70;;;;;;;;;;5073380;28;20253;-67
2022/12/07 08:03:33;;;;;;;11.20;5.85;;;;;;;;;;5073592;28;20297;-67
2022/12/07 08:06:01;;;;;;;7.85;5.47;;;;;;;;;;5073724;28;20265;-68
2022/12/07 08:08:28;;;;;;;14.52;6.18;;;;;;;;;;5073810;28;20562;-66
2022/12/07 08:11:00;;;;;;;15.90;5.55;;;;;;;;;;5073918;28;20202;-67
2022/12/07 08:13:27;;;;;;;14.57;5.80;;;;;;;;;;5073700;28;20637;-66
2022/12/07 08:15:55;;;;;;;6.75;5.13;;;;;;;;;;5073754;28;20210;-66
2022/12/07 08:18:22;;;;;;;13.32;5.88;;;;;;;;;;5073581;28;20195;-66
2022/12/07 08:20:49;;;;;;;11.20;5.25;;;;;;;;;;5073410;28;20312;-66
2022/12/07 08:23:16;;;;;;;6.53;4.85;;;;;;;;;;5073120;28;20191;-67
2022/12/07 08:25:43;;;;;;;7.43;5.10;;;;;;;;;;5073217;28;20196;-67
2022/12/07 08:28:12;;;;;;;12.23;6.22;;;;;;;;;;5073406;28;20553;-67
2022/12/07 08:30:39;;;;;;;9.15;6.22;;;;;;;;;;5073551;28;20211;-66
2022/12/07 08:33:06;;;;;;;10.63;6.28;;;;;;;;;;5073064;28;20193;-67
2022/12/07 08:35:34;;;;;;;9.00;5.68;;;;;;;;;;5074092;28;20646;-68
2022/12/07 08:38:02;;;;;;;10.13;6.13;;;;;;;;;;5073305;28;20242;-66
2022/12/07 08:40:29;;;;;;;11.25;6.40;;;;;;;;;;5073063;28;20224;-67
2022/12/07 08:42:56;;;;;;;12.05;5.88;;;;;;;;;;5073300;28;20229;-66
2022/12/07 08:45:25;;;;;;;13.82;5.30;;;;;;;;;;5073072;28;20204;-66
2022/12/07 08:47:53;;;;;;;7.03;5.60;;;;;;;;;;5072943;28;20282;-67
2022/12/07 08:50:21;;;;;;;12.05;4.70;;;;;;;;;;5073028;28;20193;-67
2022/12/07 08:52:50;;;;;;;9.70;5.57;;;;;;;;;;5073407;28;20239;-67
2022/12/07 08:55:17;;;;;;;9.48;6.13;;;;;;;;;;5077074;28;20597;-67
2022/12/07 08:57:44;;;;;;;8.18;5.32;;;;;;;;;;5077296;28;20214;-67
2022/12/07 09:00:12;;;;;;;8.25;5.32;;;;;;;;;;5076986;28;20208;-69
2022/12/07 09:02:41;;;;;;;6.07;4.78;;;;;;;;;;5080924;28;20268;-67
2022/12/07 09:05:08;;;;;;;11.65;5.80;;;;;;;;;;5097187;28;20196;-67
2022/12/07 09:07:36;;;;;;;14.60;5.72;;;;;;;;;;5097020;28;20192;-67
2022/12/07 09:10:04;;;;;;;11.38;5.18;;;;;;;;;;5097380;28;20283;-67
2022/12/07 09:12:32;;;;;;;8.25;5.60;;;;;;;;;;5096874;28;20200;-67
2022/12/07 09:15:00;;;;;;;13.93;5.07;;;;;;;;;;5097283;28;20201;-67
2022/12/07 09:17:27;;;;;;;6.18;4.68;;;;;;;;;;5097515;28;20200;-66
2022/12/07 09:19:56;;;;;;;11.07;4.95;;;;;;;;;;5097214;28;20211;-68
2022/12/07 09:22:23;;;;;;;12.07;5.97;;;;;;;;;;5096629;28;20232;-67
2022/12/07 09:24:50;;;;;;;9.50;5.00;;;;;;;;;;5097142;28;20220;-66
2022/12/07 09:27:18;;;;;;;9.30;5.47;;;;;;;;;;5096643;28;20203;-66
2022/12/07 09:29:45;;;;;;;9.52;4.97;;;;;;;;;;5097091;28;20253;-66
2022/12/07 09:32:13;;;;;;;6.63;4.45;;;;;;;;;;5096681;28;20287;-66
2022/12/07 09:34:41;;;;;;;10.35;5.13;;;;;;;;;;5097131;28;20196;-66
2022/12/07 09:37:10;;;;;;;8.13;4.60;;;;;;;;;;5096844;28;20287;-66
2022/12/07 09:39:40;;;;;;;11.50;4.60;;;;;;;;;;5096759;28;20282;-66
2022/12/07 09:42:10;;;;;;;8.73;3.55;;;;;;;;;;5096460;28;20236;-67
2022/12/07 09:44:37;;;;;;;4.82;4.38;;;;;;;;;;5096413;28;20200;-67
2022/12/07 09:47:04;;;;;;;9.13;4.20;;;;;;;;;;5096687;28;20292;-66
2022/12/07 09:49:33;;;;;;;17.13;4.38;;;;;;;;;;5096607;28;20548;-67
2022/12/07 09:52:05;;;;;;;8.07;3.72;;;;;;;;;;5096278;28;20681;-67
2022/12/07 09:54:35;;;;;;;17.40;4.05;;;;;;;;;;5096591;28;20283;-67
2022/12/07 09:57:03;;;;;;;12.88;4.53;;;;;;;;;;5096268;28;20199;-67
2022/12/07 09:59:30;;;;;;;13.07;4.53;;;;;;;;;;5096505;28;20204;-67
2022/12/07 10:02:17;;;;;;;7.57;4.03;;;;;;;;;;5096017;28;20223;-66
2022/12/07 10:04:46;;;;;;;6.10;4.68;;;;;;;;;;5095476;28;20283;-66
2022/12/07 10:07:13;;;;;;;6.53;4.03;;;;;;;;;;5096056;28;20199;-66
2022/12/07 10:09:42;;;;;;;10.55;3.75;;;;;;;;;;5096200;28;20368;-66
2022/12/07 10:12:11;;;;;;;12.80;4.95;;;;;;;;;;5096011;28;20254;-67
2022/12/07 10:14:39;;;;;;;8.00;3.65;;;;;;;;;;5096059;28;20192;-67
2022/12/07 10:17:29;;;;;;;8.85;3.70;;;;;;;;;;5096232;28;20274;-67
2022/12/07 10:20:10;;;;;;;6.93;3.20;;;;;;;;;;5096111;28;20195;-66
2022/12/07 10:22:37;;;;;;;7.00;3.42;;;;;;;;;;5096534;28;20298;-67
2022/12/07 10:25:19;;;;;;;5.32;3.55;;;;;;;;;;5095573;28;20204;-67
2022/12/07 10:27:58;;;;;;;7.90;3.78;;;;;;;;;;5095608;28;20195;-67
2022/12/07 10:30:25;;;;;;;10.52;4.05;;;;;;;;;;5096202;28;20193;-67
2022/12/07 10:32:53;;;;;;;5.28;3.63;;;;;;;;;;5095513;28;20288;-67
2022/12/07 10:35:25;;;;;;;15.18;3.38;;;;;;;;;;5095696;28;20595;-66
2022/12/07 10:37:52;;;;;;;4.85;3.10;;;;;;;;;;5095396;28;20205;-67
2022/12/07 10:40:29;;;;;;;5.70;2.92;;;;;;;;;;5095295;28;20657;-66
2022/12/07 10:43:03;;;;;;;3.03;2.70;;;;;;;;;;5095942;28;20240;-67
2022/12/07 10:45:30;;;;;;;5.10;2.95;;;;;;;;;;5095195;28;20707;-67
2022/12/07 10:48:01;;;;;;;7.38;3.88;;;;;;;;;;5095535;28;20207;-66
2022/12/07 10:50:40;;;;;;;8.40;3.00;;;;;;;;;;5095487;28;20275;-67
2022/12/07 10:53:25;;;;;;;4.25;3.17;;;;;;;;;;5096126;28;20199;-67
2022/12/07 10:56:08;;;;;;;3.92;2.70;;;;;;;;;;5095315;28;20196;-66
2022/12/07 10:58:41;;;;;;;6.38;3.47;;;;;;;;;;5095987;28;20199;-66
2022/12/07 11:01:14;;;;;;;8.10;3.45;;;;;;;;;;5095228;28;20204;-66
2022/12/07 11:03:46;;;;;;;5.03;2.92;;;;;;;;;;5094887;28;20654;-66
2022/12/07 11:06:22;;;;;;;9.95;3.50;;;;;;;;;;5095511;28;20190;-66
2022/12/07 11:09:02;;;;;;;11.10;2.70;;;;;;;;;;5095026;28;20310;-66
2022/12/07 11:11:35;;;;;;;12.32;3.70;;;;;;;;;;5094863;28;20203;-65
2022/12/07 11:14:05;;;;;;;9.27;2.95;;;;;;;;;;5095010;28;20227;-65
2022/12/07 11:16:37;;;;;;;6.63;2.58;;;;;;;;;;5094667;28;20187;-66
2022/12/07 11:19:14;;;;;;;8.13;3.55;;;;;;;;;;5094913;28;20197;-66
2022/12/07 11:21:46;;;;;;;7.43;2.75;;;;;;;;;;5094586;28;20220;-66
2022/12/07 11:24:16;;;;;;;4.82;2.72;;;;;;;;;;5095255;28;20216;-66
2022/12/07 11:26:52;;;;;;;8.93;3.17;;;;;;;;;;5094550;28;20264;-66
2022/12/07 11:29:27;;;;;;;4.68;2.83;;;;;;;;;;5094254;28;20277;-65
2022/12/07 11:31:59;;;;;;;5.80;2.72;;;;;;;;;;5095092;28;20234;-66
2022/12/07 11:34:28;;;;;;;12.98;2.80;;;;;;;;;;5094584;28;20187;-66
2022/12/07 11:36:56;;;;;;;8.30;2.75;;;;;;;;;;5094252;28;20668;-66
2022/12/07 11:39:27;;;;;;;9.52;3.20;;;;;;;;;;5094682;28;20620;-66
2022/12/07 11:41:58;;;;;;;4.97;2.35;;;;;;;;;;5094108;28;20239;-66
2022/12/07 11:44:31;;;;;;;3.33;3.10;;;;;;;;;;5094462;28;20194;-65
2022/12/07 11:47:01;;;;;;;8.93;2.63;;;;;;;;;;5095070;28;20276;-66
2022/12/07 11:49:35;;;;;;;5.45;3.05;;;;;;;;;;5094334;28;20203;-66
2022/12/07 11:52:04;;;;;;;7.00;2.70;;;;;;;;;;5094477;28;20279;-65
2022/12/07 11:54:33;;;;;;;7.68;2.70;;;;;;;;;;5094259;28;20200;-65
2022/12/07 11:57:04;;;;;;;4.25;3.33;;;;;;;;;;5094279;28;20200;-66
2022/12/07 11:59:35;;;;;;;4.88;2.90;;;;;;;;;;5093936;28;20193;-65
2022/12/07 12:02:13;;;;;;;3.78;2.55;;;;;;;;;;5094385;28;20208;-65
2022/12/07 12:04:45;;;;;;;8.98;2.95;;;;;;;;;;5093781;28;20662;-65
2022/12/07 12:07:23;;;;;;;5.13;2.35;;;;;;;;;;5094257;28;20519;-65
2022/12/07 12:09:53;;;;;;;10.77;3.03;;;;;;;;;;5093704;28;20182;-65
2022/12/07 12:12:30;;;;;;;3.60;2.30;;;;;;;;;;5093904;28;20212;-66
2022/12/07 12:15:03;;;;;;;5.70;2.40;;;;;;;;;;5093785;28;20634;-66
2022/12/07 12:17:37;;;;;;;9.85;2.50;;;;;;;;;;5094393;28;20254;-66
2022/12/07 12:20:08;;;;;;;4.78;2.15;;;;;;;;;;5093551;28;20272;-66
2022/12/07 12:22:38;;;;;;;7.80;2.58;;;;;;;;;;5094183;28;20652;-66
2022/12/07 12:25:07;;;;;;;7.13;2.42;;;;;;;;;;5093738;28;20291;-66
2022/12/07 12:27:36;;;;;;;7.32;3.05;;;;;;;;;;5093231;28;20207;-66
2022/12/07 12:30:05;;;;;;;3.58;2.10;;;;;;;;;;5093582;28;20200;-65
2022/12/07 12:32:37;;;;;;;6.68;2.60;;;;;;;;;;5093439;28;20203;-65
2022/12/07 12:35:19;;;;;;;5.63;2.60;;;;;;;;;;5093704;28;20262;-65
2022/12/07 12:37:47;;;;;;;7.25;2.90;;;;;;;;;;5093791;28;20208;-65
2022/12/07 12:40:33;;;;;;;7.85;2.30;;;;;;;;;;5093503;28;20291;-65
2022/12/07 12:43:02;;;;;;;2.40;1.63;;;;;;;;;;5093459;28;20229;-66
2022/12/07 12:45:30;;;;;;;5.95;3.28;;;;;;;;;;5093625;28;20280;-66
2022/12/07 12:48:00;;;;;;;4.38;1.60;;;;;;;;;;5093635;28;20274;-66
2022/12/07 12:50:29;;;;;;;3.72;2.75;;;;;;;;;;5093231;28;20638;-66
2022/12/07 12:52:58;;;;;;;4.97;2.40;;;;;;;;;;5094051;28;20589;-65
2022/12/07 12:55:40;;;;;;;5.78;2.95;;;;;;;;;;5093723;28;20195;-65
2022/12/07 12:58:31;;;;;;;7.70;2.55;;;;;;;;;;5090916;28;20226;-66
2022/12/07 13:01:22;;;;;;;11.98;3.30;;;;;;;;;;5093414;28;20178;-65
2022/12/07 13:03:53;;;;;;;3.72;2.63;;;;;;;;;;5078040;28;20203;-65
2022/12/07 13:06:22;;;;;;;4.30;3.17;;;;;;;;;;5092960;28;20200;-65
2022/12/07 13:08:49;;;;;;;5.53;3.10;;;;;;;;;;5093409;28;20639;-64
2022/12/07 13:11:20;;;;;;;6.38;3.47;;;;;;;;;;5093369;28;20202;-65
2022/12/07 13:13:49;;;;;;;3.28;2.95;;;;;;;;;;5093850;28;20593;-65
2022/12/07 13:16:40;;;;;;;11.15;3.53;;;;;;;;;;5093193;28;20286;-65
2022/12/07 13:19:22;;;;;;;3.08;2.30;;;;;;;;;;5093054;28;20197;-65
2022/12/07 13:21:49;;;;;;;5.57;2.70;;;;;;;;;;5059862;28;20228;-65
2022/12/07 13:24:16;;;;;;;11.57;3.97;;;;;;;;;;5093586;28;20196;-65
2022/12/07 13:26:45;;;;;;;4.90;3.15;;;;;;;;;;5092791;28;20199;-66
2022/12/07 13:29:15;;;;;;;8.70;3.50;;;;;;;;;;5093504;28;20208;-65
2022/12/07 13:31:43;;;;;;;5.55;3.00;;;;;;;;;;5093140;28;20203;-65
2022/12/07 13:34:25;;;;;;;4.82;2.25;;;;;;;;;;5093400;28;20206;-64
2022/12/07 13:36:52;;;;;;;9.02;2.40;;;;;;;;;;5093255;28;20197;-65
2022/12/07 13:39:22;;;;;;;6.28;2.78;;;;;;;;;;5093974;28;20268;-65
2022/12/07 13:41:52;;;;;;;6.05;3.25;;;;;;;;;;5096478;28;20236;-66
2022/12/07 13:44:21;;;;;;;6.30;2.80;;;;;;;;;;5096769;28;20200;-65
2022/12/07 13:46:55;;;;;;;9.52;2.75;;;;;;;;;;5096669;28;20596;-66
2022/12/07 13:49:24;;;;;;;5.45;2.60;;;;;;;;;;5096454;28;20276;-65
2022/12/07 13:51:51;;;;;;;4.55;2.08;;;;;;;;;;5096389;28;20291;-66
2022/12/07 13:54:19;;;;;;;5.68;2.03;;;;;;;;;;5096797;28;20204;-71
2022/12/07 13:56:51;;;;;;;8.10;2.28;;;;;;;;;;5097393;28;20528;-66
2022/12/07 13:59:20;;;;;;;7.57;2.55;;;;;;;;;;5096773;28;20193;-66
2022/12/07 14:01:49;;;;;;;5.05;2.28;;;;;;;;;;5095924;28;20197;-65
2022/12/07 14:04:20;;;;;;;8.10;2.20;;;;;;;;;;5096388;28;20257;-65
2022/12/07 14:06:52;;;;;;;5.35;2.25;;;;;;;;;;5096233;28;20222;-65
2022/12/07 14:09:20;;;;;;;6.45;2.60;;;;;;;;;;5096595;28;20196;-66
2022/12/07 14:11:48;;;;;;;6.97;2.50;;;;;;;;;;5095808;28;20201;-64
2022/12/07 14:14:18;;;;;;;5.75;2.22;;;;;;;;;;5096366;28;20583;-65
2022/12/07 14:16:56;;;;;;;3.53;2.60;;;;;;;;;;5087099;28;20186;-65
2022/12/07 14:19:45;;;;;;;6.88;2.85;;;;;;;;;;5074822;28;20206;-65
2022/12/07 14:22:20;;;;;;;9.05;2.40;;;;;;;;;;5075344;28;20213;-65
2022/12/07 14:24:47;;;;;;;4.47;3.05;;;;;;;;;;5075091;28;20191;-65
2022/12/07 14:27:19;;;;;;;5.47;2.60;;;;;;;;;;5075239;28;20295;-65
2022/12/07 14:29:47;;;;;;;3.75;2.15;;;;;;;;;;5075197;28;20202;-64
2022/12/07 14:32:22;;;;;;;7.40;2.05;;;;;;;;;;5075088;28;20198;-64
2022/12/07 14:35:04;;;;;;;3.35;1.98;;;;;;;;;;5075046;28;20206;-65
2022/12/07 14:37:32;;;;;;;3.35;1.85;;;;;;;;;;5074970;28;20192;-65
2022/12/07 14:39:59;;;;;;;3.85;1.60;;;;;;;;;;5075151;28;20202;-65
2022/12/07 14:42:29;;;;;;;2.38;2.17;;;;;;;;;;5074620;28;20336;-65
2022/12/07 14:44:57;;;;;;;3.20;1.92;;;;;;;;;;5075249;28;20198;-64
2022/12/07 14:47:25;;;;;;;7.35;3.28;;;;;;;;;;5074718;28;20295;-64